Time;durP1;ratioP1;P1;durP2;ratioP2;P2;SDS_P1;SDS_P2;PMS_P1;PMS_P2;Temp;Humidity;BMP_temperature;BMP_pressure;BME280_temperature;BME280_humidity;BME280_pressure;Samples;Min_cycle;Max_cycle;Signal;HPM_P1;HPM_P2
2023/10/13 00:02:05;;;;;;;1.40;1.30;;;13.70;91.50;;;;;;5050507;28;20474;-59
2023/10/13 00:04:35;;;;;;;0.87;0.87;;;13.70;91.60;;;;;;5091902;28;20411;-60
2023/10/13 00:07:02;;;;;;;1.67;1.57;;;13.70;91.70;;;;;;5091916;28;20788;-60
2023/10/13 00:09:37;;;;;;;1.53;1.30;;;13.80;91.60;;;;;;5091997;28;20413;-60
2023/10/13 00:12:13;;;;;;;3.97;1.27;;;13.80;91.30;;;;;;5091784;28;20460;-60
2023/10/13 00:14:41;;;;;;;1.57;1.47;;;13.70;91.00;;;;;;5091839;28;20417;-60
2023/10/13 00:17:07;;;;;;;1.73;1.57;;;13.60;91.30;;;;;;5091612;28;20429;-59
2023/10/13 00:19:37;;;;;;;0.97;0.97;;;13.50;91.60;;;;;;5091707;28;20434;-60
2023/10/13 00:22:11;;;;;;;0.87;0.87;;;13.40;92.00;;;;;;5091808;28;20810;-60
2023/10/13 00:24:47;;;;;;;2.73;1.30;;;13.40;92.20;;;;;;5091790;28;20418;-60
2023/10/13 00:32:46;;;;;;;0.83;0.83;;;13.40;92.20;;;;;;5091833;28;20432;-60
2023/10/13 00:35:16;;;;;;;4.40;1.33;;;13.40;92.10;;;;;;5091781;28;20562;-59
2023/10/13 00:37:44;;;;;;;1.37;1.27;;;13.40;92.10;;;;;;5091380;28;20895;-60
2023/10/13 00:43:03;;;;;;;1.13;1.03;;;13.40;92.00;;;;;;5091687;28;20429;-60
2023/10/13 00:45:33;;;;;;;0.60;0.60;;;13.40;91.90;;;;;;5091483;28;20540;-60
2023/10/13 00:48:01;;;;;;;1.20;1.10;;;13.40;91.90;;;;;;5091113;28;20806;-60
2023/10/13 00:50:29;;;;;;;2.83;1.00;;;13.30;92.00;;;;;;5091406;28;20452;-60
2023/10/13 00:52:56;;;;;;;1.97;1.13;;;13.30;92.20;;;;;;5091416;28;20429;-60
2023/10/13 00:55:22;;;;;;;0.50;0.50;;;13.30;92.40;;;;;;5091343;28;20458;-60
2023/10/13 00:57:57;;;;;;;1.00;0.90;;;13.20;92.90;;;;;;5091080;28;20407;-60
2023/10/13 01:00:28;;;;;;;1.27;1.17;;;13.10;93.20;;;;;;5091429;28;20411;-60
2023/10/13 01:02:56;;;;;;;1.03;0.97;;;13.10;93.40;;;;;;5091238;28;20445;-60
2023/10/13 01:05:26;;;;;;;2.50;1.00;;;13.00;93.70;;;;;;5091332;28;20497;-60
2023/10/13 01:07:54;;;;;;;4.10;1.50;;;13.00;93.60;;;;;;5091061;28;20911;-59
2023/10/13 01:10:25;;;;;;;1.00;0.80;;;13.00;93.50;;;;;;5092083;28;20507;-60
2023/10/13 01:12:54;;;;;;;1.23;1.10;;;12.90;93.70;;;;;;5092441;28;20459;-60
2023/10/13 01:15:29;;;;;;;1.80;1.37;;;13.00;93.60;;;;;;5095145;28;20453;-60
2023/10/13 01:18:10;;;;;;;2.90;1.40;;;13.00;93.50;;;;;;5095245;28;20937;-59
2023/10/13 01:20:43;;;;;;;1.23;0.70;;;13.00;93.50;;;;;;5095305;28;20459;-60
2023/10/13 01:23:18;;;;;;;2.20;1.07;;;13.00;93.30;;;;;;5095196;28;20421;-59
2023/10/13 01:25:45;;;;;;;1.17;1.07;;;13.00;93.40;;;;;;5095040;28;20414;-60
2023/10/13 01:28:18;;;;;;;1.37;1.00;;;13.10;93.10;;;;;;5094944;28;20446;-60
2023/10/13 01:30:50;;;;;;;1.53;1.43;;;13.10;92.90;;;;;;5095223;28;20418;-60
2023/10/13 01:33:29;;;;;;;1.33;1.23;;;13.10;93.10;;;;;;5094850;28;20945;-60
2023/10/13 01:35:58;;;;;;;3.10;0.97;;;13.10;93.30;;;;;;5094690;28;20464;-60
2023/10/13 01:38:28;;;;;;;1.00;1.00;;;13.00;93.50;;;;;;5094880;28;20417;-60
2023/10/13 01:40:56;;;;;;;1.00;0.90;;;12.90;93.80;;;;;;5094654;28;20463;-60
2023/10/13 01:43:22;;;;;;;1.10;1.03;;;12.90;93.80;;;;;;5094724;28;20437;-60
2023/10/13 01:45:49;;;;;;;5.80;1.20;;;12.90;93.90;;;;;;5094655;28;20403;-60
2023/10/13 01:48:18;;;;;;;4.10;0.90;;;12.90;93.60;;;;;;5094433;28;20961;-60
2023/10/13 01:50:55;;;;;;;0.83;0.80;;;13.00;93.80;;;;;;5094509;28;20417;-59
2023/10/13 01:53:22;;;;;;;0.83;0.83;;;12.90;93.60;;;;;;5094675;28;20511;-60
2023/10/13 01:55:50;;;;;;;1.60;1.10;;;12.90;93.80;;;;;;5094670;28;20537;-59
2023/10/13 01:58:16;;;;;;;2.40;0.97;;;12.80;94.50;;;;;;5093033;28;20425;-60
2023/10/13 02:00:43;;;;;;;2.00;1.90;;;12.60;94.50;;;;;;5094425;28;20705;-60
2023/10/13 02:03:15;;;;;;;1.80;1.50;;;12.70;94.80;;;;;;5094189;28;20505;-60
2023/10/13 02:05:46;;;;;;;6.03;2.07;;;12.70;94.70;;;;;;5094529;28;20406;-60
2023/10/13 02:08:22;;;;;;;1.83;1.73;;;12.80;94.20;;;;;;5094135;28;20415;-60
2023/10/13 02:10:48;;;;;;;1.03;1.03;;;12.80;94.20;;;;;;5094335;28;20794;-60
2023/10/13 02:13:17;;;;;;;1.10;1.10;;;12.80;94.30;;;;;;5094023;28;20466;-59
2023/10/13 02:15:47;;;;;;;1.40;1.30;;;12.90;94.10;;;;;;5093847;28;20450;-60
2023/10/13 02:18:26;;;;;;;2.10;1.90;;;12.90;94.00;;;;;;5094050;28;20419;-60
2023/10/13 02:21:12;;;;;;;2.83;1.20;;;12.90;94.10;;;;;;5093981;28;20496;-59
2023/10/13 02:23:44;;;;;;;1.77;0.90;;;12.80;94.40;;;;;;5093510;28;20415;-60
2023/10/13 02:26:15;;;;;;;1.37;1.27;;;12.80;93.90;;;;;;5093687;28;20415;-59
2023/10/13 02:28:41;;;;;;;1.23;1.13;;;12.70;94.20;;;;;;5092873;28;20915;-60
2023/10/13 02:31:07;;;;;;;1.07;0.87;;;12.60;94.50;;;;;;5094726;28;20410;-60
2023/10/13 02:33:34;;;;;;;20.60;1.43;;;12.70;94.60;;;;;;5094497;28;20630;-60
2023/10/13 02:36:04;;;;;;;2.60;1.23;;;12.60;94.60;;;;;;5093554;28;20461;-60
2023/10/13 02:41:05;;;;;;;1.43;1.33;;;12.60;94.40;;;;;;5093969;28;20441;-60
2023/10/13 02:43:35;;;;;;;1.63;1.00;;;12.70;94.50;;;;;;5093602;28;20441;-59
2023/10/13 02:46:01;;;;;;;3.37;1.10;;;12.60;94.60;;;;;;5093414;28;20820;-60
2023/10/13 02:48:39;;;;;;;1.17;1.10;;;12.70;94.60;;;;;;5093494;28;20417;-60
2023/10/13 02:51:15;;;;;;;0.60;0.60;;;12.60;94.60;;;;;;5093373;28;20923;-60
2023/10/13 02:53:48;;;;;;;2.40;1.53;;;12.60;94.70;;;;;;5093336;28;20417;-60
2023/10/13 02:56:14;;;;;;;1.57;1.47;;;12.60;94.80;;;;;;5093304;28;20504;-60
2023/10/13 02:58:45;;;;;;;2.23;1.33;;;12.60;94.50;;;;;;5093094;28;20910;-60
2023/10/13 03:01:17;;;;;;;2.40;1.33;;;12.60;94.40;;;;;;5093234;28;20414;-60
2023/10/13 03:03:47;;;;;;;2.40;1.77;;;12.60;94.60;;;;;;5093202;28;20408;-60
2023/10/13 03:06:14;;;;;;;1.63;1.40;;;12.60;94.70;;;;;;5093029;28;20553;-59
2023/10/13 03:08:39;;;;;;;1.27;1.20;;;12.60;94.90;;;;;;5092971;28;20411;-60
2023/10/13 03:11:05;;;;;;;1.03;1.03;;;12.50;95.20;;;;;;5093163;28;20940;-60
2023/10/13 03:13:34;;;;;;;1.47;1.37;;;12.40;95.40;;;;;;5093363;28;20184;-61
2023/10/13 03:15:59;;;;;;;0.60;0.60;;;12.40;95.30;;;;;;5092730;28;20208;-62
2023/10/13 03:18:26;;;;;;;1.60;1.00;;;12.50;95.00;;;;;;5092704;28;20407;-61
2023/10/13 03:20:56;;;;;;;2.10;2.00;;;12.50;95.20;;;;;;5093024;28;20189;-62
2023/10/13 03:23:24;;;;;;;10.20;2.63;;;12.50;95.00;;;;;;5092945;28;20418;-61
2023/10/13 03:25:50;;;;;;;2.23;2.00;;;12.50;95.00;;;;;;5092660;28;20423;-62
2023/10/13 03:28:18;;;;;;;3.90;1.57;;;12.40;95.30;;;;;;5092932;28;20415;-61
2023/10/13 03:30:44;;;;;;;1.80;1.70;;;12.30;95.70;;;;;;5092714;28;20177;-61
2023/10/13 03:33:14;;;;;;;4.73;1.47;;;12.20;95.90;;;;;;5092463;28;20568;-61
2023/10/13 03:35:46;;;;;;;2.50;1.00;;;12.20;96.00;;;;;;5091681;28;20539;-62
2023/10/13 03:38:17;;;;;;;2.70;0.67;;;12.20;95.80;;;;;;5092213;28;20494;-61
2023/10/13 03:41:12;;;;;;;1.07;1.03;;;12.20;95.90;;;;;;5092580;28;20399;-62
2023/10/13 03:44:09;;;;;;;0.90;0.73;;;12.20;95.90;;;;;;5092404;28;20410;-61
2023/10/13 03:46:26;;;;;;;1.53;0.90;;;12.20;95.70;;;;;;5092023;28;20427;-61
2023/10/13 03:48:54;;;;;;;3.93;2.40;;;12.30;95.60;;;;;;5092215;28;20514;-61
2023/10/13 03:51:19;;;;;;;1.63;1.53;;;12.40;95.30;;;;;;5093005;28;20278;-61
2023/10/13 03:53:55;;;;;;;1.60;1.23;;;12.40;95.30;;;;;;5093410;28;20484;-62
2023/10/13 03:56:28;;;;;;;3.10;2.20;;;12.40;95.30;;;;;;5092001;28;21010;-62
2023/10/13 03:59:00;;;;;;;0.77;0.77;;;12.30;95.80;;;;;;5092141;28;20413;-62
2023/10/13 04:01:40;;;;;;;1.60;1.33;;;12.30;96.00;;;;;;5092337;28;20454;-61
2023/10/13 04:04:11;;;;;;;20.93;1.73;;;12.20;96.20;;;;;;5092121;28;20479;-61
2023/10/13 04:11:03;;;;;;;2.07;1.97;;;12.10;96.50;;;;;;5092068;28;20493;-62
2023/10/13 04:15:17;;;;;;;1.83;1.67;;;12.10;96.30;;;;;;5092034;28;20414;-61
2023/10/13 04:17:45;;;;;;;2.80;1.73;;;12.10;96.20;;;;;;5091776;28;20418;-61
2023/10/13 04:33:51;;;;;;;1.67;1.50;;;12.00;96.30;;;;;;5091607;28;20468;-62
2023/10/13 04:36:16;;;;;;;1.10;1.00;;;11.80;97.00;;;;;;5091026;28;21065;-62
2023/10/13 04:38:56;;;;;;;3.08;1.27;;;11.80;97.10;;;;;;5091586;28;20415;-62
2023/10/13 04:41:31;;;;;;;0.65;0.65;;;11.90;97.00;;;;;;5091457;28;20699;-62
2023/10/13 04:49:28;;;;;;;2.88;1.40;;;12.00;96.50;;;;;;5091418;28;20406;-62
2023/10/13 04:51:59;;;;;;;1.25;0.95;;;11.90;96.60;;;;;;5091393;28;20741;-63
2023/10/13 04:54:28;;;;;;;1.70;1.60;;;11.90;96.70;;;;;;5091413;28;20251;-63
2023/10/13 04:57:22;;;;;;;1.63;0.93;;;11.80;96.80;;;;;;5090942;28;20456;-63
2023/10/13 05:46:49;;;;;;;1.35;1.25;;;11.70;96.70;;;;;;5090765;28;20418;-63
2023/10/13 06:29:48;;;;;;;1.00;1.00;;;12.50;95.50;;;;;;5094002;28;20615;-63
2023/10/13 06:32:16;;;;;;;4.10;1.30;;;12.70;95.60;;;;;;5094269;28;20568;-63
2023/10/13 06:34:44;;;;;;;5.60;1.43;;;12.80;95.30;;;;;;5095116;28;20421;-62
2023/10/13 06:37:22;;;;;;;2.00;1.03;;;12.90;95.10;;;;;;5093444;28;20407;-63
2023/10/13 06:39:56;;;;;;;3.27;1.50;;;13.00;95.10;;;;;;5093777;28;20428;-63
2023/10/13 06:42:26;;;;;;;1.27;1.17;;;13.20;94.90;;;;;;5093689;28;20800;-63
2023/10/13 06:44:55;;;;;;;1.53;1.23;;;13.30;94.60;;;;;;5093527;28;20406;-63
2023/10/13 06:47:22;;;;;;;1.33;1.23;;;13.50;94.80;;;;;;5093285;28;20402;-63
2023/10/13 06:49:51;;;;;;;1.77;1.10;;;13.50;94.50;;;;;;5093477;28;20407;-63
2023/10/13 06:52:17;;;;;;;2.97;1.30;;;13.60;94.60;;;;;;5093351;28;20526;-63
2023/10/13 06:54:43;;;;;;;1.30;1.10;;;13.80;94.10;;;;;;5093341;28;20398;-63
2023/10/13 06:57:14;;;;;;;3.03;0.90;;;13.90;94.30;;;;;;5093051;28;20825;-63
2023/10/13 06:59:41;;;;;;;2.60;1.03;;;13.90;94.40;;;;;;5093514;28;20414;-63
2023/10/13 07:02:09;;;;;;;2.07;1.87;;;14.10;94.70;;;;;;5093366;28;20927;-63
2023/10/13 07:04:39;;;;;;;1.07;0.97;;;14.70;94.60;;;;;;5093309;28;20418;-63
2023/10/13 07:07:05;;;;;;;1.20;1.13;;;15.60;94.20;;;;;;5092899;28;20407;-63
2023/10/13 07:12:06;;;;;;;2.67;1.57;;;18.00;90.30;;;;;;5092809;28;20455;-62
2023/10/13 07:14:40;;;;;;;2.57;2.37;;;19.70;84.60;;;;;;5093004;28;20413;-63
2023/10/13 07:17:07;;;;;;;2.03;1.37;;;21.30;78.20;;;;;;5092867;28;20755;-63
2023/10/13 07:19:33;;;;;;;1.80;1.27;;;22.60;72.00;;;;;;5092854;28;20402;-63
2023/10/13 07:22:19;;;;;;;2.50;1.97;;;23.80;68.00;;;;;;5092829;28;20418;-63
2023/10/13 07:24:50;;;;;;;2.83;1.80;;;24.90;62.00;;;;;;5093011;28;20442;-63
2023/10/13 07:27:24;;;;;;;2.43;1.17;;;25.70;57.60;;;;;;5092528;28;21138;-63
2023/10/13 07:30:14;;;;;;;2.50;1.40;;;26.00;56.00;;;;;;5092660;28;20926;-64
2023/10/13 07:32:45;;;;;;;2.87;1.50;;;26.40;54.40;;;;;;5092630;28;20522;-64
2023/10/13 07:35:17;;;;;;;3.00;1.30;;;27.10;52.90;;;;;;5092400;28;20537;-62
2023/10/13 07:37:44;;;;;;;2.37;1.93;;;27.70;50.50;;;;;;5092231;28;20399;-61
2023/10/13 07:43:09;;;;;;;1.37;1.20;;;27.90;49.30;;;;;;5061041;28;20431;-61
2023/10/13 07:45:40;;;;;;;3.17;1.90;;;27.50;48.80;;;;;;5092531;28;20497;-61
2023/10/13 07:48:12;;;;;;;1.57;1.17;;;27.10;49.20;;;;;;5092224;28;20414;-61
2023/10/13 07:50:39;;;;;;;1.40;1.30;;;26.70;49.30;;;;;;5092279;28;20443;-61
2023/10/13 07:53:18;;;;;;;1.50;1.27;;;26.30;49.20;;;;;;5092224;28;20797;-61
2023/10/13 07:55:45;;;;;;;1.90;1.53;;;26.20;50.80;;;;;;5093403;28;20465;-60
2023/10/13 07:58:13;;;;;;;1.87;1.60;;;26.60;50.10;;;;;;5091903;28;20403;-61
2023/10/13 08:06:18;;;;;;;1.63;1.53;;;28.40;47.20;;;;;;5092137;28;20934;-61
2023/10/13 08:08:53;;;;;;;3.90;1.20;;;29.40;46.30;;;;;;5091879;28;20503;-61
2023/10/13 08:11:30;;;;;;;1.70;1.23;;;30.80;42.90;;;;;;5091924;28;20458;-64
2023/10/13 08:13:59;;;;;;;8.23;1.33;;;32.00;40.00;;;;;;5091935;28;20406;-62
2023/10/13 08:16:45;;;;;;;2.07;1.30;;;33.20;40.10;;;;;;5091657;28;20458;-61
2023/10/13 08:19:14;;;;;;;2.80;1.00;;;34.30;39.10;;;;;;5091842;28;20417;-62
2023/10/13 08:21:48;;;;;;;4.70;1.40;;;35.30;37.10;;;;;;5091462;28;20428;-61
2023/10/13 08:24:25;;;;;;;2.00;1.30;;;36.00;36.20;;;;;;5091845;28;20411;-61
2023/10/13 08:27:15;;;;;;;1.90;1.40;;;36.50;35.80;;;;;;5091433;28;20410;-62
2023/10/13 08:48:07;;;;;;;2.30;1.37;;;38.70;29.70;;;;;;5091454;28;20892;-61
2023/10/13 08:53:26;;;;;;;3.50;1.43;;;39.00;26.50;;;;;;5091378;28;20461;-61
2023/10/13 08:56:15;;;;;;;2.50;1.23;;;38.90;27.90;;;;;;5091241;28;20457;-62
2023/10/13 09:01:45;;;;;;;1.27;1.13;;;38.90;26.90;;;;;;5091494;28;20448;-62
2023/10/13 09:09:35;;;;;;;1.57;1.13;;;38.50;25.90;;;;;;5091478;28;20401;-62
2023/10/13 09:12:14;;;;;;;4.17;1.23;;;37.50;26.70;;;;;;5109435;22;20478;-62
2023/10/13 09:14:45;;;;;;;1.97;1.00;;;37.00;26.50;;;;;;5091195;28;20395;-62
2023/10/13 09:19:56;;;;;;;1.27;1.17;;;35.30;26.00;;;;;;5091309;28;20533;-62
2023/10/13 09:22:35;;;;;;;1.87;1.07;;;34.10;27.00;;;;;;5091097;28;20495;-61
2023/10/13 09:25:02;;;;;;;3.90;1.27;;;34.00;27.90;;;;;;5089911;28;20407;-62
2023/10/13 09:27:33;;;;;;;2.10;1.17;;;34.00;27.40;;;;;;5090674;28;20397;-61
2023/10/13 09:30:21;;;;;;;1.53;1.00;;;33.70;27.40;;;;;;5091112;28;20746;-62
2023/10/13 09:33:01;;;;;;;1.13;1.03;;;33.50;28.00;;;;;;5091549;28;20521;-62
2023/10/13 09:35:27;;;;;;;2.93;1.90;;;33.20;28.10;;;;;;5094879;28;20485;-62
2023/10/13 09:37:56;;;;;;;2.77;1.40;;;33.10;28.10;;;;;;5094707;28;20406;-62
2023/10/13 09:40:34;;;;;;;1.43;1.33;;;33.40;27.90;;;;;;5094866;28;20411;-61
2023/10/13 09:43:07;;;;;;;3.07;1.20;;;33.40;27.60;;;;;;5094621;28;20509;-61
2023/10/13 09:45:39;;;;;;;2.90;1.23;;;33.30;28.30;;;;;;5094976;28;20407;-62
2023/10/13 09:48:21;;;;;;;2.50;1.03;;;33.00;27.80;;;;;;5094518;28;20414;-62
2023/10/13 09:50:48;;;;;;;3.67;1.60;;;32.90;28.30;;;;;;5094713;28;20394;-61
2023/10/13 09:53:18;;;;;;;5.50;1.40;;;32.70;28.40;;;;;;5094524;28;20575;-61
2023/10/13 09:56:01;;;;;;;2.20;1.33;;;32.10;28.70;;;;;;5094442;28;20798;-62
2023/10/13 09:58:36;;;;;;;1.73;1.33;;;31.60;29.10;;;;;;5094411;28;20552;-62
2023/10/13 10:01:09;;;;;;;4.30;1.70;;;31.30;29.60;;;;;;5094541;28;20492;-62
2023/10/13 10:03:54;;;;;;;2.13;1.53;;;31.20;29.70;;;;;;5094402;28;20427;-61
2023/10/13 10:06:28;;;;;;;2.27;1.50;;;30.80;29.80;;;;;;5094291;28;20904;-61
2023/10/13 10:09:11;;;;;;;1.43;1.03;;;30.30;29.90;;;;;;5094206;28;20411;-61
2023/10/13 10:12:08;;;;;;;1.40;1.30;;;30.20;30.80;;;;;;5094226;28;20403;-62
2023/10/13 10:14:58;;;;;;;1.40;0.90;;;30.00;30.50;;;;;;5094215;28;20450;-62
2023/10/13 10:17:29;;;;;;;1.20;1.10;;;29.70;32.60;;;;;;5094013;28;20831;-62
2023/10/13 10:19:56;;;;;;;1.10;1.00;;;29.50;31.70;;;;;;5075842;28;20407;-62
2023/10/13 10:22:33;;;;;;;6.17;1.70;;;29.50;30.90;;;;;;5093940;28;20422;-61
2023/10/13 10:25:01;;;;;;;1.27;1.00;;;29.10;31.10;;;;;;5094241;28;20402;-61
2023/10/13 10:27:31;;;;;;;2.23;2.00;;;28.80;32.00;;;;;;5094006;28;20407;-61
2023/10/13 10:29:57;;;;;;;0.97;0.90;;;28.50;33.00;;;;;;5094184;28;20403;-61
2023/10/13 10:32:59;;;;;;;3.43;1.33;;;28.60;33.20;;;;;;5093804;28;20444;-62
2023/10/13 10:35:32;;;;;;;2.47;2.00;;;28.40;32.80;;;;;;5076859;28;20486;-61
2023/10/13 10:40:57;;;;;;;3.60;1.73;;;27.90;33.70;;;;;;5093822;28;20409;-60
2023/10/13 10:43:43;;;;;;;2.80;1.93;;;27.40;34.20;;;;;;5093421;28;20414;-60
2023/10/13 10:46:14;;;;;;;1.87;1.23;;;27.30;34.60;;;;;;5093514;28;20377;-61
2023/10/13 10:48:42;;;;;;;1.00;0.90;;;27.20;34.90;;;;;;5093463;28;20414;-61
2023/10/13 10:53:45;;;;;;;1.77;1.30;;;27.20;35.80;;;;;;5093375;28;20524;-61
2023/10/13 10:56:20;;;;;;;7.03;1.50;;;27.00;36.20;;;;;;5093294;28;20477;-61
2023/10/13 10:58:54;;;;;;;5.30;1.20;;;26.80;35.70;;;;;;5093187;28;20398;-61
2023/10/13 11:01:21;;;;;;;1.10;1.00;;;26.60;37.00;;;;;;5093367;28;20445;-61
2023/10/13 11:03:58;;;;;;;1.40;1.30;;;26.60;37.40;;;;;;5093197;28;20442;-61
2023/10/13 11:06:26;;;;;;;3.30;1.27;;;26.50;37.10;;;;;;5093044;28;20410;-61
2023/10/13 11:09:18;;;;;;;2.87;1.20;;;26.40;37.30;;;;;;5093014;28;20406;-61
2023/10/13 11:11:52;;;;;;;2.07;1.53;;;26.20;37.10;;;;;;5092973;28;20438;-61
2023/10/13 11:14:25;;;;;;;1.70;1.03;;;26.10;37.50;;;;;;5093087;28;20425;-61
2023/10/13 11:16:55;;;;;;;3.60;1.83;;;26.10;37.30;;;;;;5092927;28;20685;-61
2023/10/13 11:19:30;;;;;;;2.27;1.17;;;26.00;37.90;;;;;;5093062;28;20415;-61
2023/10/13 11:21:57;;;;;;;1.80;1.40;;;26.10;38.30;;;;;;5093087;28;20510;-61
2023/10/13 11:24:22;;;;;;;1.17;1.07;;;26.10;39.10;;;;;;5092885;28;20774;-61
2023/10/13 11:26:49;;;;;;;1.93;1.17;;;26.20;38.00;;;;;;5092572;28;20407;-62
2023/10/13 11:29:18;;;;;;;3.50;1.07;;;26.30;37.90;;;;;;5092752;28;20698;-61
2023/10/13 11:31:57;;;;;;;1.50;1.40;;;26.30;38.30;;;;;;5092681;28;20479;-62
2023/10/13 11:34:23;;;;;;;1.20;1.10;;;26.30;37.90;;;;;;5092815;28;20414;-61
2023/10/13 11:36:48;;;;;;;3.70;1.13;;;26.20;38.80;;;;;;5092264;28;20564;-61
2023/10/13 11:39:19;;;;;;;3.00;1.30;;;26.10;38.00;;;;;;5092607;28;20196;-61
2023/10/13 11:41:53;;;;;;;1.53;1.20;;;26.10;38.60;;;;;;5092422;28;20274;-61
2023/10/13 11:49:18;;;;;;;2.77;2.33;;;26.10;38.60;;;;;;5092321;28;20442;-61
2023/10/13 11:51:50;;;;;;;2.87;1.17;;;26.10;39.80;;;;;;5092297;28;20404;-61
2023/10/13 11:54:18;;;;;;;1.77;1.67;;;26.00;41.40;;;;;;5092333;28;20559;-61
2023/10/13 11:56:47;;;;;;;2.60;1.63;;;26.10;39.30;;;;;;5091234;28;21001;-62
2023/10/13 11:59:17;;;;;;;1.67;1.20;;;26.10;39.20;;;;;;5092152;28;20472;-61
2023/10/13 12:04:51;;;;;;;1.20;1.10;;;26.10;39.50;;;;;;5092142;28;20942;-61
2023/10/13 12:07:23;;;;;;;1.93;1.10;;;26.00;41.80;;;;;;5092053;28;20391;-61
2023/10/13 12:12:20;;;;;;;1.90;1.70;;;25.80;39.50;;;;;;5091973;28;20457;-61
2023/10/13 12:14:58;;;;;;;5.80;1.57;;;25.80;41.70;;;;;;5091947;28;20377;-61
2023/10/13 12:17:34;;;;;;;5.27;1.90;;;25.60;39.50;;;;;;5091800;28;20432;-61
2023/10/13 12:20:32;;;;;;;1.13;1.00;;;25.40;39.10;;;;;;5092125;28;20729;-60
2023/10/13 12:22:55;;;;;;;2.67;1.17;;;25.40;40.20;;;;;;5091002;28;20450;-60
2023/10/13 12:28:06;;;;;;;2.13;1.40;;;25.40;42.90;;;;;;5091775;28;20475;-61
2023/10/13 12:30:51;;;;;;;1.10;1.10;;;25.40;42.10;;;;;;5091864;28;20498;-61
2023/10/13 12:33:24;;;;;;;3.47;1.13;;;25.30;41.30;;;;;;5091708;28;20401;-61
2023/10/13 12:36:06;;;;;;;1.27;1.17;;;25.30;40.70;;;;;;5091504;28;20443;-61
2023/10/13 12:38:50;;;;;;;1.47;0.93;;;25.20;41.50;;;;;;5091606;28;20414;-59
2023/10/13 12:52:48;;;;;;;1.83;1.53;;;24.30;44.10;;;;;;5091615;28;20408;-61
2023/10/13 12:57:25;;;;;;;1.20;1.10;;;24.30;42.90;;;;;;5091349;28;20442;-62
2023/10/13 12:59:56;;;;;;;3.47;1.87;;;24.30;45.90;;;;;;5091488;28;20837;-60
2023/10/13 13:02:26;;;;;;;1.97;1.77;;;24.10;47.70;;;;;;5091324;28;20429;-61
2023/10/13 13:04:56;;;;;;;1.63;1.30;;;23.80;46.70;;;;;;5091244;28;20463;-61
2023/10/13 13:07:28;;;;;;;3.37;1.40;;;23.70;44.20;;;;;;5092890;28;20407;-61
2023/10/13 13:09:58;;;;;;;1.57;1.20;;;23.70;43.40;;;;;;5095727;28;20748;-61
2023/10/13 13:12:24;;;;;;;2.13;1.00;;;23.70;46.50;;;;;;5095294;28;20442;-61
2023/10/13 13:14:54;;;;;;;2.20;1.67;;;23.60;42.90;;;;;;5095438;28;20447;-60
2023/10/13 13:17:21;;;;;;;1.33;1.23;;;23.60;44.10;;;;;;5095056;28;20403;-61
2023/10/13 13:19:46;;;;;;;2.07;1.30;;;23.70;43.20;;;;;;5095433;28;20942;-61
2023/10/13 13:22:12;;;;;;;3.63;1.63;;;23.60;44.10;;;;;;5095189;28;20509;-61
2023/10/13 13:24:45;;;;;;;1.30;1.20;;;23.40;45.30;;;;;;5095255;28;20169;-61
2023/10/13 13:27:13;;;;;;;2.00;1.10;;;23.30;43.10;;;;;;5094898;28;20176;-61
2023/10/13 13:29:42;;;;;;;1.70;1.20;;;23.30;44.60;;;;;;5095093;28;20427;-60
2023/10/13 13:32:18;;;;;;;1.17;1.07;;;23.20;43.40;;;;;;5094844;28;20912;-61
2023/10/13 13:34:45;;;;;;;0.93;0.67;;;23.20;44.00;;;;;;5095017;28;20406;-61
2023/10/13 13:37:12;;;;;;;1.20;1.10;;;23.10;43.30;;;;;;5094667;28;20797;-61
2023/10/13 13:39:45;;;;;;;1.70;1.60;;;23.10;42.90;;;;;;5095012;28;20462;-61
2023/10/13 13:42:10;;;;;;;1.80;1.00;;;23.20;42.90;;;;;;5094947;28;20899;-61
2023/10/13 13:44:36;;;;;;;1.77;1.60;;;23.20;43.60;;;;;;5094705;28;20445;-61
2023/10/13 13:47:11;;;;;;;1.80;1.47;;;23.10;43.30;;;;;;5094841;28;20543;-61
2023/10/13 13:49:45;;;;;;;3.00;1.70;;;23.00;42.40;;;;;;5094994;28;20184;-61
2023/10/13 13:52:17;;;;;;;2.50;0.83;;;23.00;43.50;;;;;;5094742;28;20445;-60
2023/10/13 13:54:43;;;;;;;1.43;1.13;;;23.00;43.80;;;;;;5094688;28;20415;-61
2023/10/13 13:57:09;;;;;;;1.60;1.30;;;22.90;45.40;;;;;;5094096;28;20444;-61
2023/10/13 13:59:36;;;;;;;4.37;2.03;;;22.90;43.80;;;;;;5094528;28;20418;-61
2023/10/13 14:02:19;;;;;;;3.80;1.13;;;22.80;47.20;;;;;;5094633;28;20207;-61
2023/10/13 14:04:52;;;;;;;1.10;1.00;;;22.70;44.70;;;;;;5094494;28;20932;-61
2023/10/13 14:07:24;;;;;;;4.70;1.43;;;22.70;43.70;;;;;;5094195;28;20417;-61
2023/10/13 14:09:52;;;;;;;3.17;1.20;;;22.70;42.90;;;;;;5094479;28;20417;-60
2023/10/13 14:12:29;;;;;;;1.30;1.20;;;22.70;44.50;;;;;;5094142;28;20507;-61
2023/10/13 14:14:55;;;;;;;2.23;1.67;;;22.60;45.80;;;;;;5094211;28;20406;-61
2023/10/13 14:17:35;;;;;;;1.93;1.43;;;22.50;43.90;;;;;;5093960;28;20774;-61
2023/10/13 14:20:09;;;;;;;1.70;1.60;;;22.40;45.00;;;;;;5093535;28;20540;-61
2023/10/13 14:22:37;;;;;;;1.87;1.30;;;22.40;43.30;;;;;;5094329;28;20400;-61
2023/10/13 14:25:08;;;;;;;8.00;1.43;;;22.50;45.40;;;;;;5094178;28;20420;-61
2023/10/13 14:27:35;;;;;;;0.87;0.87;;;22.40;44.40;;;;;;5093887;28;20425;-61
2023/10/13 14:30:02;;;;;;;3.13;1.60;;;22.40;44.70;;;;;;5093912;28;20498;-61
2023/10/13 14:32:28;;;;;;;1.27;0.90;;;22.30;45.40;;;;;;5093831;28;20436;-61
2023/10/13 14:34:55;;;;;;;3.20;1.40;;;22.20;47.20;;;;;;5094092;28;20408;-61
2023/10/13 14:37:31;;;;;;;3.53;1.10;;;21.90;47.30;;;;;;5093657;28;20417;-61
2023/10/13 14:39:58;;;;;;;0.80;0.80;;;21.80;46.80;;;;;;5093996;28;20400;-61
2023/10/13 14:42:28;;;;;;;1.93;1.40;;;21.60;48.50;;;;;;5093757;28;20435;-61
2023/10/13 14:44:56;;;;;;;1.03;0.80;;;21.40;45.60;;;;;;5093631;28;20439;-60
2023/10/13 14:47:25;;;;;;;3.13;1.67;;;21.40;48.10;;;;;;5093355;28;20399;-61
2023/10/13 14:49:55;;;;;;;1.30;1.20;;;21.30;48.90;;;;;;5093596;28;20893;-62
2023/10/13 14:52:24;;;;;;;1.87;1.67;;;21.30;48.20;;;;;;5093627;28;20784;-60
2023/10/13 14:54:55;;;;;;;2.80;1.00;;;21.20;49.20;;;;;;5093535;28;20447;-61
2023/10/13 14:57:24;;;;;;;1.37;1.23;;;21.20;47.00;;;;;;5093146;28;20404;-61
2023/10/13 14:59:52;;;;;;;1.30;1.20;;;21.20;45.90;;;;;;5093590;28;20730;-61
2023/10/13 15:02:17;;;;;;;1.30;1.20;;;21.20;46.40;;;;;;5093325;28;20497;-61
2023/10/13 15:04:43;;;;;;;3.40;1.07;;;21.20;45.60;;;;;;5093514;28;21007;-61
2023/10/13 15:07:08;;;;;;;2.10;0.90;;;21.30;44.90;;;;;;5093025;28;20198;-61
2023/10/13 15:09:34;;;;;;;0.90;0.90;;;21.40;45.70;;;;;;5093120;28;20215;-60
2023/10/13 15:12:05;;;;;;;1.13;1.03;;;21.40;45.00;;;;;;5145465;22;20234;-61
2023/10/13 15:14:33;;;;;;;2.43;1.43;;;21.40;45.60;;;;;;5091669;28;20168;-61
2023/10/13 15:17:00;;;;;;;2.10;1.47;;;21.40;44.10;;;;;;5092534;28;20952;-61
2023/10/13 15:19:26;;;;;;;1.43;1.33;;;21.40;45.30;;;;;;5093119;28;20418;-61
2023/10/13 15:21:52;;;;;;;1.67;1.57;;;21.30;47.00;;;;;;5092958;28;20494;-61
2023/10/13 15:24:20;;;;;;;1.30;1.20;;;21.20;44.90;;;;;;5093022;28;20177;-60
2023/10/13 15:26:49;;;;;;;4.70;0.80;;;21.10;46.30;;;;;;5092454;28;20413;-61
2023/10/13 15:29:16;;;;;;;1.23;0.70;;;21.10;46.80;;;;;;5092735;28;20403;-63
2023/10/13 15:34:27;;;;;;;1.37;1.00;;;20.90;46.10;;;;;;5092932;28;20405;-62
2023/10/13 15:36:55;;;;;;;0.90;0.90;;;20.90;46.20;;;;;;5092420;28;20947;-63
2023/10/13 15:39:24;;;;;;;2.60;1.40;;;20.80;46.80;;;;;;5092491;28;20439;-64
2023/10/13 15:41:53;;;;;;;1.30;1.20;;;20.70;45.60;;;;;;5092713;28;20438;-63
2023/10/13 15:44:20;;;;;;;3.07;0.90;;;20.50;46.20;;;;;;5092573;28;20484;-63
2023/10/13 15:46:49;;;;;;;0.63;0.60;;;20.40;47.60;;;;;;5092101;28;20412;-63
2023/10/13 15:49:17;;;;;;;1.10;0.73;;;20.40;45.50;;;;;;5092505;28;20406;-63
2023/10/13 15:51:50;;;;;;;2.07;1.30;;;20.30;43.70;;;;;;5068734;28;20548;-62
2023/10/13 15:54:20;;;;;;;0.73;0.63;;;20.30;43.40;;;;;;5069001;28;20427;-62
2023/10/13 15:56:49;;;;;;;2.97;0.87;;;20.20;42.30;;;;;;5068311;28;20188;-62
2023/10/13 15:59:15;;;;;;;0.60;0.60;;;20.20;44.60;;;;;;5069209;28;20408;-62
2023/10/13 16:01:41;;;;;;;0.50;0.50;;;20.10;45.00;;;;;;5069515;28;20413;-62
2023/10/13 16:04:11;;;;;;;1.10;1.00;;;19.90;44.40;;;;;;5068549;28;20857;-62
2023/10/13 16:06:46;;;;;;;1.13;1.07;;;19.80;43.90;;;;;;5068144;28;20407;-62
2023/10/13 16:09:22;;;;;;;3.33;1.60;;;19.70;44.00;;;;;;5068584;28;20423;-62
2023/10/13 16:11:49;;;;;;;0.70;0.70;;;19.60;42.90;;;;;;5068241;28;20498;-62
2023/10/13 16:14:17;;;;;;;0.90;0.90;;;19.60;42.80;;;;;;5068330;28;20431;-62
2023/10/13 16:16:48;;;;;;;0.60;0.60;;;19.60;40.60;;;;;;5068053;28;20397;-62
2023/10/13 16:19:21;;;;;;;3.93;1.27;;;19.60;43.60;;;;;;5068254;28;20395;-62
2023/10/13 16:21:47;;;;;;;0.50;0.50;;;19.50;40.00;;;;;;5068100;28;20939;-62
2023/10/13 16:24:17;;;;;;;1.90;1.27;;;19.40;42.10;;;;;;5068244;28;20413;-62
2023/10/13 16:26:49;;;;;;;3.47;0.63;;;19.30;42.20;;;;;;5068010;28;20399;-62
2023/10/13 16:29:17;;;;;;;0.53;0.43;;;19.10;42.30;;;;;;5068211;28;20910;-62